TAF and METAR

Decoding for American and Canadian METARs and TAFs is not fully implemented.

Could not understand the following METAR

CWIL 230900Z AUTO 33018KT ////SM OVC002 M12/M13 A3034
No TAF available for Hat Island
Hat Island in Canada at 36m

Latest 5 airports